createdAt,value
2023-01-12T00:00:27.669Z,7.65
2023-01-12T00:02:56.436Z,10.82
2023-01-12T00:05:26.352Z,12.07
2023-01-12T00:07:54.890Z,8.38
2023-01-12T00:10:23.423Z,10.95
2023-01-12T00:12:52.155Z,11.10
2023-01-12T00:15:40.953Z,9.30
2023-01-12T00:18:09.795Z,9.73
2023-01-12T00:20:39.713Z,7.88
2023-01-12T00:23:08.465Z,9.70
2023-01-12T00:25:36.994Z,8.10
2023-01-12T00:28:05.804Z,10.45
2023-01-12T00:30:34.359Z,12.83
2023-01-12T00:33:03.116Z,5.88
2023-01-12T00:35:31.872Z,10.32
2023-01-12T00:38:01.854Z,9.32
2023-01-12T00:40:30.683Z,9.45
2023-01-12T00:43:16.803Z,9.70
2023-01-12T00:45:45.394Z,8.75
2023-01-12T00:48:15.656Z,10.02
2023-01-12T00:50:44.426Z,8.07
2023-01-12T00:53:14.519Z,7.70
2023-01-12T00:55:43.065Z,12.93
2023-01-12T00:58:11.907Z,10.43
2023-01-12T01:00:40.452Z,8.30
2023-01-12T01:03:09.312Z,11.75
2023-01-12T01:05:39.132Z,8.57
2023-01-12T01:08:08.183Z,7.87
2023-01-12T01:10:38.135Z,9.15
2023-01-12T01:13:06.924Z,11.05
2023-01-12T01:15:35.485Z,11.02
2023-01-12T01:18:04.457Z,11.68
2023-01-12T01:20:36.750Z,10.00
2023-01-12T01:23:05.344Z,10.70
2023-01-12T01:25:34.714Z,10.80
2023-01-12T01:28:04.850Z,12.63
2023-01-12T01:30:33.479Z,8.80
2023-01-12T01:33:02.306Z,12.67
2023-01-12T01:35:30.821Z,10.25
2023-01-12T01:37:59.720Z,8.30
2023-01-12T01:40:28.333Z,10.93
2023-01-12T01:42:56.897Z,8.40
2023-01-12T01:45:26.964Z,11.40
2023-01-12T01:48:01.061Z,9.77
2023-01-12T01:50:33.907Z,9.90
2023-01-12T01:53:07.058Z,11.38
2023-01-12T01:55:40.689Z,13.52
2023-01-12T01:58:14.706Z,9.63
2023-01-12T02:00:46.492Z,16.75
2023-01-12T02:03:16.030Z,13.02
2023-01-12T02:05:48.545Z,10.85
2023-01-12T02:08:23.922Z,8.90
2023-01-12T02:10:54.283Z,15.77
2023-01-12T02:13:48.797Z,11.35
2023-01-12T02:16:25.799Z,12.93
2023-01-12T02:19:11.759Z,8.07
2023-01-12T02:22:21.351Z,11.98
2023-01-12T02:25:16.984Z,10.40
2023-01-12T02:28:10.587Z,9.52
2023-01-12T02:31:12.965Z,14.40
2023-01-12T02:33:58.217Z,8.00
2023-01-12T02:36:37.269Z,10.07
2023-01-12T02:39:17.624Z,9.80
2023-01-12T02:42:14.215Z,9.00
2023-01-12T02:44:50.187Z,10.93
2023-01-12T02:47:30.499Z,8.23
2023-01-12T02:50:03.651Z,10.38
2023-01-12T02:52:35.022Z,8.97
2023-01-12T02:55:06.379Z,10.52
2023-01-12T02:57:36.741Z,9.68
2023-01-12T03:00:08.572Z,8.88
2023-01-12T03:02:39.853Z,11.07
2023-01-12T03:05:09.619Z,7.87
2023-01-12T03:07:47.208Z,7.53
2023-01-12T03:10:35.649Z,13.15
2023-01-12T03:13:08.883Z,7.88
2023-01-12T03:15:41.957Z,10.55
2023-01-12T03:18:16.890Z,14.17
2023-01-12T03:20:52.225Z,10.40
2023-01-12T03:23:24.199Z,8.32
2023-01-12T03:25:56.345Z,7.82
2023-01-12T03:28:30.119Z,14.25
2023-01-12T03:31:05.158Z,12.17
2023-01-12T03:33:35.100Z,6.80
2023-01-12T03:36:17.344Z,11.25
2023-01-12T03:38:58.857Z,10.98
2023-01-12T03:41:37.663Z,10.40
2023-01-12T03:44:10.784Z,14.73
2023-01-12T03:46:44.609Z,8.95
2023-01-12T03:49:21.915Z,10.55
2023-01-12T03:51:51.915Z,5.50
2023-01-12T03:54:22.144Z,8.93
2023-01-12T03:56:54.774Z,11.30
2023-01-12T03:59:24.281Z,8.93
2023-01-12T04:01:53.157Z,13.88
2023-01-12T04:04:24.161Z,9.40
2023-01-12T04:06:52.679Z,12.38
2023-01-12T04:09:22.976Z,14.77
2023-01-12T04:12:08.992Z,10.23
2023-01-12T04:14:37.924Z,10.23
2023-01-12T04:17:06.754Z,13.18
2023-01-12T04:19:36.686Z,9.25
2023-01-12T04:22:22.776Z,11.43
2023-01-12T04:24:51.374Z,12.60
2023-01-12T04:27:20.533Z,11.57
2023-01-12T04:29:49.046Z,8.63
2023-01-12T04:32:17.561Z,13.00
2023-01-12T04:34:47.588Z,9.57
2023-01-12T04:37:16.592Z,7.20
2023-01-12T04:39:45.111Z,13.15
2023-01-12T04:42:27.679Z,9.35
2023-01-12T04:44:56.228Z,9.00
2023-01-12T04:47:25.227Z,10.47
2023-01-12T04:49:55.114Z,8.00
2023-01-12T04:52:24.145Z,9.85
2023-01-12T04:54:52.624Z,11.70
2023-01-12T04:57:21.212Z,10.73
2023-01-12T04:59:49.921Z,9.63
2023-01-12T05:02:18.720Z,12.95
2023-01-12T05:04:48.772Z,12.15
2023-01-12T05:07:19.075Z,11.15
2023-01-12T05:10:04.809Z,7.82
2023-01-12T05:12:33.684Z,11.97
2023-01-12T05:15:03.688Z,8.55
2023-01-12T05:17:33.618Z,10.32
2023-01-12T05:20:02.412Z,11.48
2023-01-12T05:22:32.923Z,10.38
2023-01-12T05:25:01.479Z,9.73
2023-01-12T05:27:30.019Z,8.15
2023-01-12T05:29:59.754Z,8.05
2023-01-12T05:32:28.570Z,9.65
2023-01-12T05:34:57.062Z,10.02
2023-01-12T05:37:25.819Z,10.03
2023-01-12T05:39:55.730Z,8.00
2023-01-12T05:42:41.930Z,6.53
2023-01-12T05:45:12.615Z,8.43
2023-01-12T05:47:41.178Z,11.90
2023-01-12T05:50:11.377Z,7.03
2023-01-12T05:52:39.943Z,8.70
2023-01-12T05:55:11.809Z,8.75
2023-01-12T05:57:40.636Z,7.43
2023-01-12T06:00:11.064Z,10.23
2023-01-12T06:02:39.588Z,11.97
2023-01-12T06:05:09.645Z,8.52
2023-01-12T06:07:38.652Z,6.13
2023-01-12T06:10:10.883Z,8.52
2023-01-12T06:12:57.157Z,10.93
2023-01-12T06:15:26.126Z,6.63
2023-01-12T06:17:54.625Z,11.00
2023-01-12T06:20:23.595Z,9.98
2023-01-12T06:22:52.288Z,7.97
2023-01-12T06:25:22.492Z,6.03
2023-01-12T06:27:51.231Z,8.13
2023-01-12T06:30:20.250Z,7.20
2023-01-12T06:32:49.033Z,7.00
2023-01-12T06:35:19.560Z,8.93
2023-01-12T06:37:48.618Z,11.00
2023-01-12T06:40:17.421Z,8.57
2023-01-12T06:42:46.323Z,8.85
2023-01-12T06:45:15.222Z,7.72
2023-01-12T06:47:48.965Z,7.75
2023-01-12T06:50:18.302Z,10.80
2023-01-12T06:52:47.375Z,9.03
2023-01-12T06:55:16.271Z,7.40
2023-01-12T06:57:46.473Z,6.97
2023-01-12T07:00:16.161Z,8.23
2023-01-12T07:02:44.773Z,5.53
2023-01-12T07:05:13.267Z,8.43
2023-01-12T07:07:41.831Z,7.40
2023-01-12T07:10:12.415Z,6.38
2023-01-12T07:12:41.574Z,6.38
2023-01-12T07:15:12.655Z,9.48
2023-01-12T07:17:41.270Z,7.10
2023-01-12T07:20:11.667Z,8.25
2023-01-12T07:22:40.567Z,6.25
2023-01-12T07:25:09.985Z,7.55
2023-01-12T07:27:38.817Z,6.10
2023-01-12T07:30:10.788Z,8.17
2023-01-12T07:32:39.568Z,8.18
2023-01-12T07:35:09.355Z,7.68
2023-01-12T07:37:37.952Z,6.47
2023-01-12T07:40:08.129Z,18.48
2023-01-12T07:42:38.204Z,7.93
2023-01-12T07:45:08.529Z,8.20
2023-01-12T07:47:38.408Z,5.53
2023-01-12T07:50:08.902Z,5.60
2023-01-12T07:52:38.271Z,9.70
2023-01-12T07:55:07.609Z,5.50
2023-01-12T07:57:37.528Z,5.68
2023-01-12T08:00:07.396Z,10.23
2023-01-12T08:02:37.844Z,5.13
2023-01-12T08:05:07.374Z,7.00
2023-01-12T08:07:35.916Z,6.63
2023-01-12T08:10:04.688Z,6.70
2023-01-12T08:12:33.473Z,5.50
2023-01-12T08:15:03.947Z,5.78
2023-01-12T08:17:39.001Z,5.90
2023-01-12T08:20:13.919Z,6.57
2023-01-12T08:22:48.422Z,6.53
2023-01-12T08:28:15.386Z,4.00
2023-01-12T08:30:46.426Z,4.88
2023-01-12T08:33:17.427Z,7.17
2023-01-12T08:35:47.446Z,7.53
2023-01-12T08:38:16.218Z,4.47
2023-01-12T08:41:02.223Z,5.53
2023-01-12T08:43:44.817Z,4.75
2023-01-12T08:46:13.756Z,6.30
2023-01-12T08:48:43.788Z,8.32
2023-01-12T08:51:12.555Z,7.68
2023-01-12T08:53:41.341Z,5.43
2023-01-12T08:56:10.265Z,6.53
2023-01-12T08:58:39.845Z,6.97
2023-01-12T09:01:10.382Z,7.10
2023-01-12T09:03:39.838Z,7.13
2023-01-12T09:06:15.470Z,6.70
2023-01-12T09:08:44.502Z,4.93
2023-01-12T09:11:15.896Z,6.90
2023-01-12T09:13:45.379Z,6.47
2023-01-12T09:16:16.758Z,7.20
2023-01-12T09:18:46.471Z,4.53
2023-01-12T09:21:18.900Z,5.72
2023-01-12T09:23:49.659Z,6.07
2023-01-12T09:26:20.583Z,4.20
2023-01-12T09:28:49.624Z,5.13
2023-01-12T09:31:21.440Z,5.32
2023-01-12T09:33:50.662Z,4.78
2023-01-12T09:36:23.330Z,4.23
2023-01-12T09:38:52.527Z,4.68
2023-01-12T09:41:39.288Z,3.58
2023-01-12T09:44:36.551Z,4.82
2023-01-12T09:47:10.185Z,4.45
2023-01-12T09:49:46.891Z,2.57
2023-01-12T09:52:21.581Z,3.92
2023-01-12T09:54:53.017Z,4.05
2023-01-12T09:58:07.380Z,3.47
2023-01-12T10:00:36.278Z,4.10
2023-01-12T10:03:19.693Z,4.00
2023-01-12T10:05:52.362Z,5.38
2023-01-12T10:08:32.040Z,2.90
2023-01-12T10:11:11.927Z,5.30
2023-01-12T10:14:22.923Z,3.28
2023-01-12T10:17:05.301Z,3.60
2023-01-12T10:19:41.149Z,3.10
2023-01-12T10:22:38.304Z,3.15
2023-01-12T10:25:33.135Z,4.07
2023-01-12T10:28:07.894Z,3.85
2023-01-12T10:30:38.992Z,2.33
2023-01-12T10:33:14.186Z,3.95
2023-01-12T10:35:59.394Z,3.80
2023-01-12T10:38:31.657Z,4.50
2023-01-12T10:41:18.179Z,4.05
2023-01-12T10:44:04.549Z,5.80
2023-01-12T10:46:36.235Z,3.35
2023-01-12T10:49:20.165Z,5.35
2023-01-12T10:51:56.852Z,7.38
2023-01-12T10:54:28.987Z,3.20
2023-01-12T10:57:03.340Z,4.40
2023-01-12T10:59:34.763Z,4.72
2023-01-12T11:02:16.443Z,4.72
2023-01-12T11:04:47.786Z,3.03
2023-01-12T11:07:19.640Z,4.03
2023-01-12T11:09:48.928Z,4.43
2023-01-12T11:12:29.696Z,5.70
2023-01-12T11:15:05.247Z,4.50
2023-01-12T11:17:58.665Z,3.58
2023-01-12T11:20:35.161Z,4.45
2023-01-12T11:23:11.062Z,4.93
2023-01-12T11:25:44.624Z,3.22
2023-01-12T11:28:21.414Z,3.85
2023-01-12T11:30:54.830Z,4.47
2023-01-12T11:33:28.771Z,3.53
2023-01-12T11:36:03.860Z,4.17
2023-01-12T11:38:39.047Z,5.32
2023-01-12T11:41:12.008Z,4.00
2023-01-12T11:43:56.034Z,3.17
2023-01-12T11:46:29.213Z,5.50
2023-01-12T11:49:08.834Z,5.80
2023-01-12T11:51:38.002Z,6.32
2023-01-12T11:54:08.151Z,3.70
2023-01-12T11:57:04.684Z,6.00
2023-01-12T11:59:42.847Z,5.97
2023-01-12T12:02:33.174Z,3.87
2023-01-12T12:05:22.409Z,3.17
2023-01-12T12:08:09.682Z,3.95
2023-01-12T12:10:49.521Z,3.50
2023-01-12T12:13:29.541Z,3.78
2023-01-12T12:16:16.518Z,4.33
2023-01-12T12:19:19.652Z,6.28
2023-01-12T12:21:51.015Z,3.20
2023-01-12T12:24:56.725Z,4.90
2023-01-12T12:27:39.537Z,3.72
2023-01-12T12:30:40.527Z,3.87
2023-01-12T12:33:23.563Z,2.75
2023-01-12T12:36:08.705Z,4.28
2023-01-12T12:39:10.954Z,5.25
2023-01-12T12:42:04.077Z,3.33
2023-01-12T12:45:05.346Z,4.17
2023-01-12T12:47:58.203Z,4.22
2023-01-12T12:50:32.559Z,5.10
2023-01-12T12:53:13.331Z,4.72
2023-01-12T12:55:42.865Z,5.57
2023-01-12T12:58:47.367Z,5.33
2023-01-12T13:02:00.094Z,4.20
2023-01-12T13:05:05.035Z,4.88
2023-01-12T13:07:43.590Z,6.32
2023-01-12T13:10:30.481Z,3.53
2023-01-12T13:13:29.596Z,4.40
2023-01-12T13:16:48.255Z,2.17
2023-01-12T13:19:36.157Z,3.13
2023-01-12T13:22:30.917Z,4.03
2023-01-12T13:25:02.883Z,3.97
2023-01-12T13:27:55.959Z,10.10
2023-01-12T13:30:40.521Z,5.03
2023-01-12T13:33:25.330Z,4.18
2023-01-12T13:36:10.238Z,3.20
2023-01-12T13:39:13.506Z,5.32
2023-01-12T13:42:02.399Z,3.80
2023-01-12T13:44:36.779Z,3.10
2023-01-12T13:47:11.559Z,4.13
2023-01-12T13:49:48.847Z,5.47
2023-01-12T13:52:30.127Z,3.83
2023-01-12T13:54:59.420Z,5.17
2023-01-12T13:57:31.914Z,5.35
2023-01-12T14:00:04.885Z,5.20
2023-01-12T14:02:34.117Z,6.63
2023-01-12T14:05:20.346Z,4.82
2023-01-12T14:08:01.373Z,4.87
2023-01-12T14:10:39.741Z,4.68
2023-01-12T14:13:33.160Z,4.18
2023-01-12T14:16:20.923Z,3.88
2023-01-12T14:18:51.425Z,5.45
2023-01-12T14:21:26.641Z,4.67
2023-01-12T14:23:55.666Z,5.30
2023-01-12T14:26:27.438Z,5.55
2023-01-12T14:28:58.506Z,6.32
2023-01-12T14:31:39.768Z,4.65
2023-01-12T14:34:24.170Z,2.87
2023-01-12T14:36:53.038Z,4.88
2023-01-12T14:39:25.952Z,3.20
2023-01-12T14:42:13.831Z,6.78
2023-01-12T14:45:10.232Z,6.80
2023-01-12T14:47:38.980Z,7.07
2023-01-12T14:50:19.282Z,4.75
2023-01-12T14:52:51.691Z,5.60
2023-01-12T14:55:29.338Z,6.30
2023-01-12T14:58:01.562Z,6.53
2023-01-12T15:00:34.400Z,3.00
2023-01-12T15:03:08.042Z,5.72
2023-01-12T15:05:37.772Z,5.40
2023-01-12T15:08:26.977Z,4.65
2023-01-12T15:11:00.800Z,5.55
2023-01-12T15:13:33.032Z,6.13
2023-01-12T15:16:21.854Z,5.50
2023-01-12T15:19:08.015Z,4.40
2023-01-12T15:21:55.645Z,4.38
2023-01-12T15:24:45.182Z,3.33
2023-01-12T15:27:16.094Z,6.60
2023-01-12T15:29:45.380Z,4.93
2023-01-12T15:32:20.027Z,5.03
2023-01-12T15:34:49.239Z,6.05
2023-01-12T15:37:19.628Z,3.88
2023-01-12T15:39:49.193Z,5.07
2023-01-12T15:42:22.107Z,5.00
2023-01-12T15:44:52.704Z,6.88
2023-01-12T15:47:22.958Z,6.10
2023-01-12T15:49:53.471Z,5.80
2023-01-12T15:52:24.930Z,5.23
2023-01-12T15:54:53.983Z,4.72
2023-01-12T15:57:23.482Z,5.13
2023-01-12T15:59:52.064Z,4.75
2023-01-12T16:02:35.627Z,5.22
2023-01-12T16:05:05.441Z,3.93
2023-01-12T16:07:34.167Z,5.93
2023-01-12T16:10:03.126Z,4.20
2023-01-12T16:12:32.089Z,5.60
2023-01-12T16:15:01.346Z,3.47
2023-01-12T16:17:31.400Z,5.73
2023-01-12T16:20:00.231Z,4.13
2023-01-12T16:22:30.618Z,4.85
2023-01-12T16:24:59.151Z,5.45
2023-01-12T16:27:28.604Z,7.15
2023-01-12T16:29:57.210Z,5.57
2023-01-12T16:32:26.811Z,3.53
2023-01-12T16:34:56.687Z,3.38
2023-01-12T16:37:27.932Z,5.03
2023-01-12T16:39:56.712Z,4.13
2023-01-12T16:42:25.503Z,3.67
2023-01-12T16:44:54.090Z,5.72
2023-01-12T16:47:24.428Z,4.25
2023-01-12T16:49:53.564Z,5.43
2023-01-12T16:52:24.072Z,2.75
2023-01-12T16:54:53.083Z,4.33
2023-01-12T16:57:21.668Z,4.57
2023-01-12T16:59:51.343Z,4.20
2023-01-12T17:02:20.790Z,3.83
2023-01-12T17:04:52.237Z,4.18
2023-01-12T17:07:22.556Z,2.80
2023-01-12T17:09:51.952Z,3.15
2023-01-12T17:12:20.870Z,3.65
2023-01-12T17:14:49.496Z,2.85
2023-01-12T17:17:18.552Z,4.13
2023-01-12T17:19:47.517Z,5.10
2023-01-12T17:22:16.179Z,4.10
2023-01-12T17:24:46.407Z,17.40
2023-01-12T17:27:16.014Z,5.47
2023-01-12T17:29:44.883Z,4.03
2023-01-12T17:32:13.893Z,3.67
2023-01-12T17:34:43.388Z,5.43
2023-01-12T17:37:12.280Z,6.80
2023-01-12T17:39:43.065Z,4.40
2023-01-12T17:42:32.196Z,4.53
2023-01-12T17:45:00.935Z,3.60
2023-01-12T17:47:29.691Z,5.18
2023-01-12T17:49:58.421Z,4.18
2023-01-12T17:52:27.637Z,3.40
2023-01-12T17:54:56.467Z,3.65
2023-01-12T17:57:27.238Z,2.33
2023-01-12T17:59:56.070Z,3.42
2023-01-12T18:02:24.727Z,2.85
2023-01-12T18:04:53.604Z,3.40
2023-01-12T18:07:22.127Z,3.28
2023-01-12T18:09:50.879Z,4.73
2023-01-12T18:12:21.487Z,3.70
2023-01-12T18:14:51.678Z,5.07
2023-01-12T18:17:20.447Z,6.47
2023-01-12T18:19:49.456Z,3.75
2023-01-12T18:22:18.254Z,4.17
2023-01-12T18:24:47.257Z,3.63
2023-01-12T18:27:15.863Z,5.00
2023-01-12T18:29:44.668Z,3.42
2023-01-12T18:32:14.570Z,3.55
2023-01-12T18:34:43.770Z,3.20
2023-01-12T18:37:13.760Z,3.97
2023-01-12T18:39:44.087Z,4.75
2023-01-12T18:42:30.461Z,3.40
2023-01-12T18:44:59.658Z,2.85
2023-01-12T18:47:47.078Z,3.47
2023-01-12T18:50:33.229Z,4.65
2023-01-12T18:53:19.614Z,3.55
2023-01-12T18:55:50.340Z,3.15
2023-01-12T18:58:18.930Z,3.35
2023-01-12T19:00:47.742Z,4.63
2023-01-12T19:03:18.354Z,4.65
2023-01-12T19:05:58.498Z,5.53
2023-01-12T19:08:47.393Z,3.83
2023-01-12T19:11:17.132Z,7.63
2023-01-12T19:14:03.860Z,5.80
2023-01-12T19:16:50.204Z,3.70
2023-01-12T19:19:23.509Z,3.60
2023-01-12T19:22:09.439Z,4.20
2023-01-12T19:24:55.213Z,5.20
2023-01-12T19:27:42.756Z,4.50
2023-01-12T19:30:13.198Z,5.03
2023-01-12T19:32:41.744Z,4.15
2023-01-12T19:35:12.076Z,4.13
2023-01-12T19:37:42.607Z,4.13
2023-01-12T19:40:19.014Z,3.80
2023-01-12T19:43:05.112Z,7.40
2023-01-12T19:45:33.619Z,4.55
2023-01-12T19:48:03.657Z,4.22
2023-01-12T19:50:34.996Z,3.95
2023-01-12T19:53:04.131Z,4.47
2023-01-12T19:55:34.134Z,6.65
2023-01-12T19:58:02.839Z,4.65
2023-01-12T20:00:31.618Z,5.13
2023-01-12T20:03:00.457Z,5.65
2023-01-12T20:05:29.603Z,3.97
2023-01-12T20:07:59.590Z,5.22
2023-01-12T20:10:28.450Z,4.15
2023-01-12T20:12:57.902Z,5.53
2023-01-12T20:15:26.450Z,6.30
2023-01-12T20:17:58.215Z,4.47
2023-01-12T20:20:27.392Z,5.35
2023-01-12T20:22:56.191Z,4.47
2023-01-12T20:25:28.190Z,5.15
2023-01-12T20:27:57.916Z,5.72
2023-01-12T20:30:37.441Z,6.00
2023-01-12T20:33:06.964Z,5.47
2023-01-12T20:35:38.583Z,5.10
2023-01-12T20:38:13.374Z,4.13
2023-01-12T20:40:43.559Z,5.13
2023-01-12T20:43:12.452Z,6.37
2023-01-12T20:45:42.947Z,5.15
2023-01-12T20:48:15.047Z,5.53
2023-01-12T20:50:45.216Z,4.22
2023-01-12T20:53:15.080Z,4.72
2023-01-12T20:55:47.317Z,4.13
2023-01-12T20:58:16.835Z,5.05
2023-01-12T21:00:46.153Z,7.13
2023-01-12T21:03:14.869Z,4.40
2023-01-12T21:05:44.140Z,4.40
2023-01-12T21:08:14.208Z,4.77
2023-01-12T21:10:51.755Z,5.53
2023-01-12T21:13:20.976Z,4.47
2023-01-12T21:15:49.607Z,4.03
2023-01-12T21:18:18.323Z,5.90
2023-01-12T21:20:47.113Z,5.53
2023-01-12T21:23:16.345Z,6.85
2023-01-12T21:25:45.368Z,3.90
2023-01-12T21:28:15.338Z,4.28
2023-01-12T21:30:43.866Z,3.92
2023-01-12T21:33:13.291Z,6.27
2023-01-12T21:35:42.223Z,5.53
2023-01-12T21:38:10.983Z,4.05
2023-01-12T21:40:39.701Z,6.50
2023-01-12T21:43:12.434Z,4.57
2023-01-12T21:45:45.990Z,3.70
2023-01-12T21:48:17.570Z,6.00
2023-01-12T21:50:46.347Z,5.45
2023-01-12T21:53:17.838Z,5.05
2023-01-12T21:55:55.316Z,5.55
2023-01-12T21:58:24.451Z,3.27
2023-01-12T22:00:54.562Z,3.50
2023-01-12T22:03:25.795Z,5.25
2023-01-12T22:05:54.708Z,3.63
2023-01-12T22:08:23.713Z,4.60
2023-01-12T22:10:52.192Z,3.37
2023-01-12T22:13:20.969Z,5.28
2023-01-12T22:15:51.045Z,4.38
2023-01-12T22:18:21.084Z,6.30
2023-01-12T22:20:50.673Z,3.22
2023-01-12T22:23:19.230Z,4.37
2023-01-12T22:25:47.744Z,4.45
2023-01-12T22:28:16.281Z,4.78
2023-01-12T22:30:45.277Z,5.25
2023-01-12T22:33:13.774Z,4.38
2023-01-12T22:35:43.669Z,4.43
2023-01-12T22:38:12.542Z,4.35
2023-01-12T22:40:41.319Z,5.03
2023-01-12T22:43:29.459Z,4.65
2023-01-12T22:45:59.017Z,4.80
2023-01-12T22:48:29.008Z,4.23
2023-01-12T22:51:02.230Z,3.65
2023-01-12T22:53:30.960Z,3.58
2023-01-12T22:56:01.362Z,2.85
2023-01-12T22:58:30.609Z,3.78
2023-01-12T23:01:05.221Z,4.20
2023-01-12T23:03:34.483Z,3.55
2023-01-12T23:06:06.419Z,4.72
2023-01-12T23:08:35.099Z,3.78
2023-01-12T23:11:06.465Z,5.07
2023-01-12T23:13:35.908Z,5.37
2023-01-12T23:16:08.617Z,5.63
2023-01-12T23:18:41.244Z,4.30
2023-01-12T23:21:15.891Z,4.28
2023-01-12T23:23:46.892Z,2.72
2023-01-12T23:26:17.967Z,3.77
2023-01-12T23:28:49.401Z,4.25
2023-01-12T23:31:21.901Z,3.80
2023-01-12T23:33:52.145Z,3.65
2023-01-12T23:36:24.738Z,3.85
2023-01-12T23:38:57.902Z,3.87
2023-01-12T23:41:28.700Z,4.15
2023-01-12T23:44:00.563Z,4.47
2023-01-12T23:46:32.929Z,3.65
2023-01-12T23:49:01.991Z,3.05
2023-01-12T23:51:32.328Z,4.53
2023-01-12T23:54:03.160Z,3.35
2023-01-12T23:56:35.929Z,5.07
2023-01-12T23:59:05.553Z,5.40
